createdAt,value
2019-05-12T00:01:53.352Z,6.77
2019-05-12T00:04:28.109Z,5.77
2019-05-12T00:07:01.193Z,6.07
2019-05-12T00:09:48.448Z,6.13
2019-05-12T00:12:22.961Z,5.43
2019-05-12T00:15:08.184Z,8.70
2019-05-12T00:17:41.245Z,6.13
2019-05-12T00:20:14.501Z,4.23
2019-05-12T00:22:50.807Z,5.00
2019-05-12T00:25:24.789Z,4.40
2019-05-12T00:27:58.849Z,5.03
2019-05-12T00:30:52.697Z,4.77
2019-05-12T00:33:28.273Z,4.30
2019-05-12T00:36:01.741Z,5.50
2019-05-12T00:38:35.289Z,8.90
2019-05-12T00:41:09.253Z,10.37
2019-05-12T00:43:43.057Z,7.40
2019-05-12T00:46:14.748Z,7.00
2019-05-12T00:48:48.228Z,7.07
2019-05-12T00:51:30.457Z,6.10
2019-05-12T00:54:08.879Z,4.90
2019-05-12T00:56:44.027Z,5.43
2019-05-12T00:59:19.003Z,8.57
2019-05-12T01:01:53.636Z,5.40
2019-05-12T01:04:29.153Z,4.10
2019-05-12T01:07:08.715Z,4.73
2019-05-12T01:09:43.376Z,3.70
2019-05-12T01:12:18.306Z,4.43
2019-05-12T01:14:52.892Z,3.17
2019-05-12T01:17:28.190Z,3.30
2019-05-12T01:20:02.766Z,6.37
2019-05-12T01:22:38.300Z,4.83
2019-05-12T01:25:13.413Z,3.17
2019-05-12T01:27:49.007Z,4.20
2019-05-12T01:30:22.337Z,2.83
2019-05-12T01:32:58.166Z,3.47
2019-05-12T01:35:32.147Z,3.07
2019-05-12T01:38:07.790Z,3.67
2019-05-12T01:40:40.771Z,3.70
2019-05-12T01:43:13.994Z,7.07
2019-05-12T01:45:48.437Z,6.87
2019-05-12T01:48:22.796Z,6.53
2019-05-12T01:50:57.989Z,5.77
2019-05-12T01:53:32.109Z,5.00
2019-05-12T01:56:07.897Z,4.83
2019-05-12T01:58:41.524Z,5.13
2019-05-12T02:01:15.712Z,6.03
2019-05-12T02:03:49.385Z,6.17
2019-05-12T02:06:22.952Z,5.27
2019-05-12T02:08:59.435Z,4.47
2019-05-12T02:11:34.335Z,4.30
2019-05-12T02:14:09.232Z,9.93
2019-05-12T02:16:42.710Z,7.10
2019-05-12T02:19:19.304Z,6.23
2019-05-12T02:21:54.239Z,7.33
2019-05-12T02:24:30.480Z,5.70
2019-05-12T02:27:04.228Z,5.90
2019-05-12T02:29:38.455Z,4.07
2019-05-12T02:32:12.386Z,16.37
2019-05-12T02:34:46.313Z,15.00
2019-05-12T02:37:19.736Z,9.90
2019-05-12T02:39:55.550Z,6.77
2019-05-12T02:42:30.285Z,5.40
2019-05-12T02:45:05.577Z,5.27
2019-05-12T02:47:39.579Z,4.60
2019-05-12T02:50:14.627Z,4.03
2019-05-12T02:52:50.134Z,4.43
2019-05-12T02:55:25.679Z,4.43
2019-05-12T02:58:04.631Z,3.23
2019-05-12T03:00:36.788Z,5.50
2019-05-12T03:03:14.722Z,6.43
2019-05-12T03:05:54.744Z,11.03
2019-05-12T03:08:29.699Z,6.33
2019-05-12T03:11:06.057Z,5.87
2019-05-12T03:13:39.347Z,4.23
2019-05-12T03:16:14.925Z,5.00
2019-05-12T03:18:49.010Z,4.00
2019-05-12T03:21:24.504Z,4.53
2019-05-12T03:24:05.719Z,4.20
2019-05-12T03:26:37.684Z,4.40
2019-05-12T03:29:14.533Z,4.77
2019-05-12T03:31:49.221Z,3.50
2019-05-12T03:34:22.377Z,4.17
2019-05-12T03:36:58.879Z,3.20
2019-05-12T03:39:34.250Z,3.20
2019-05-12T03:42:06.102Z,3.60
2019-05-12T03:44:40.354Z,3.20
2019-05-12T03:47:14.482Z,5.63
2019-05-12T03:49:48.716Z,4.53
2019-05-12T03:52:24.479Z,5.60
2019-05-12T03:54:58.942Z,4.43
2019-05-12T03:57:34.537Z,3.77
2019-05-12T04:00:08.297Z,3.27
2019-05-12T04:02:45.131Z,2.73
2019-05-12T04:05:17.522Z,3.00
2019-05-12T04:07:54.650Z,6.23
2019-05-12T04:10:27.370Z,8.33
2019-05-12T04:13:04.488Z,4.10
2019-05-12T04:15:38.528Z,4.27
2019-05-12T04:18:16.015Z,7.53
2019-05-12T04:20:49.715Z,5.23
2019-05-12T04:23:25.155Z,4.67
2019-05-12T04:26:08.447Z,4.47
2019-05-12T04:28:35.048Z,4.73
2019-05-12T04:31:15.487Z,2.67
2019-05-12T04:33:48.007Z,3.80
2019-05-12T04:36:24.577Z,3.37
2019-05-12T04:38:56.078Z,4.13
2019-05-12T04:41:31.079Z,5.93
2019-05-12T04:44:06.129Z,2.80
2019-05-12T04:46:44.939Z,3.83
2019-05-12T04:49:16.602Z,7.93
2019-05-12T04:51:50.932Z,6.13
2019-05-12T04:54:24.838Z,4.97
2019-05-12T04:56:59.183Z,2.50
2019-05-12T04:59:34.518Z,3.83
2019-05-12T05:02:08.300Z,4.30
2019-05-12T05:04:44.082Z,3.73
2019-05-12T05:07:18.388Z,3.40
2019-05-12T05:09:54.978Z,3.90
2019-05-12T05:12:29.550Z,3.60
2019-05-12T05:15:05.210Z,4.80
2019-05-12T05:17:38.070Z,4.43
2019-05-12T05:20:13.555Z,3.70
2019-05-12T05:22:48.709Z,4.00
2019-05-12T05:25:23.740Z,4.13
2019-05-12T05:27:59.202Z,4.07
2019-05-12T05:30:34.414Z,3.93
2019-05-12T05:33:14.467Z,3.93
2019-05-12T05:35:50.402Z,3.40
2019-05-12T05:38:25.321Z,4.67
2019-05-12T05:40:59.807Z,4.73
2019-05-12T05:43:35.494Z,3.00
2019-05-12T05:46:13.631Z,3.27
2019-05-12T05:48:47.603Z,3.00
2019-05-12T05:51:20.857Z,3.13
2019-05-12T05:53:54.447Z,4.33
2019-05-12T05:56:39.680Z,4.77
2019-05-12T05:59:04.575Z,4.97
2019-05-12T06:01:40.080Z,4.77
2019-05-12T06:04:17.878Z,13.40
2019-05-12T06:06:55.726Z,3.10
2019-05-12T06:09:26.132Z,13.57
2019-05-12T06:11:59.154Z,4.37
2019-05-12T06:14:40.819Z,4.13
2019-05-12T06:17:14.631Z,5.17
2019-05-12T06:19:58.435Z,5.47
2019-05-12T06:22:33.815Z,4.90
2019-05-12T06:25:16.264Z,3.90
2019-05-12T06:27:51.197Z,3.60
2019-05-12T06:30:25.325Z,4.47
2019-05-12T06:32:59.248Z,5.10
2019-05-12T06:35:37.394Z,5.70
2019-05-12T06:38:09.554Z,3.70
2019-05-12T06:40:45.585Z,4.80
2019-05-12T06:43:19.249Z,3.90
2019-05-12T06:45:54.455Z,6.27
2019-05-12T06:48:30.231Z,4.00
2019-05-12T06:51:04.139Z,4.23
2019-05-12T06:53:37.313Z,5.50
2019-05-12T06:56:15.392Z,3.57
2019-05-12T06:58:46.876Z,5.07
2019-05-12T07:01:24.207Z,8.77
2019-05-12T07:04:06.594Z,3.83
2019-05-12T07:06:37.695Z,6.00
2019-05-12T07:09:18.613Z,5.93
2019-05-12T07:12:01.579Z,2.33
2019-05-12T07:14:27.214Z,4.53
2019-05-12T07:17:07.984Z,4.90
2019-05-12T07:19:43.957Z,2.43
2019-05-12T07:22:22.398Z,3.20
2019-05-12T07:24:54.745Z,5.00
2019-05-12T07:27:36.758Z,3.10
2019-05-12T07:30:06.935Z,8.50
2019-05-12T07:32:44.483Z,6.17
2019-05-12T07:35:19.045Z,5.30
2019-05-12T07:37:54.117Z,9.30
2019-05-12T07:40:30.531Z,5.40
2019-05-12T07:43:09.881Z,6.43
2019-05-12T07:45:46.099Z,5.20
2019-05-12T07:48:29.431Z,8.00
2019-05-12T07:51:04.247Z,5.70
2019-05-12T07:53:38.381Z,5.30
2019-05-12T07:56:14.463Z,8.10
2019-05-12T07:59:13.566Z,6.00
2019-05-12T08:01:51.818Z,4.97
2019-05-12T08:04:39.876Z,5.70
2019-05-12T08:07:10.153Z,5.87
2019-05-12T08:09:43.979Z,5.30
2019-05-12T08:12:21.007Z,6.20
2019-05-12T08:15:05.443Z,4.40
2019-05-12T08:17:39.704Z,2.97
2019-05-12T08:20:14.603Z,3.73
2019-05-12T08:23:05.069Z,5.10
2019-05-12T08:25:38.141Z,4.30
2019-05-12T08:28:16.286Z,3.93
2019-05-12T08:30:54.869Z,4.10
2019-05-12T08:33:28.329Z,3.00
2019-05-12T08:36:05.507Z,4.57
2019-05-12T08:38:35.132Z,7.13
2019-05-12T08:41:30.473Z,4.43
2019-05-12T08:44:10.082Z,3.30
2019-05-12T08:47:15.230Z,3.17
2019-05-12T08:50:04.891Z,2.97
2019-05-12T08:52:41.254Z,3.80
2019-05-12T08:55:25.057Z,4.20
2019-05-12T08:58:31.622Z,3.50
2019-05-12T09:01:10.568Z,4.13
2019-05-12T09:03:47.964Z,3.97
2019-05-12T09:06:24.384Z,3.83
2019-05-12T09:09:09.771Z,3.73
2019-05-12T09:15:40.852Z,7.30
2019-05-12T09:18:18.785Z,5.00
2019-05-12T09:21:07.932Z,4.77
2019-05-12T09:23:42.565Z,3.10
2019-05-12T09:26:18.580Z,3.10
2019-05-12T09:28:51.262Z,4.03
2019-05-12T09:31:29.389Z,3.60
2019-05-12T09:34:05.497Z,2.73
2019-05-12T09:36:38.294Z,2.93
2019-05-12T09:39:14.072Z,2.37
2019-05-12T09:41:52.135Z,2.43
2019-05-12T09:44:35.320Z,3.70
2019-05-12T09:47:21.910Z,6.00
2019-05-12T09:49:46.192Z,6.50
2019-05-12T09:52:23.285Z,12.07
2019-05-12T09:54:56.515Z,3.97
2019-05-12T09:57:34.727Z,9.37
2019-05-12T10:00:06.848Z,4.23
2019-05-12T10:03:14.115Z,10.67
2019-05-12T10:05:54.561Z,5.00
2019-05-12T10:08:35.651Z,4.80
2019-05-12T10:11:10.296Z,6.80
2019-05-12T10:14:00.209Z,7.07
2019-05-12T10:17:26.201Z,3.40
2019-05-12T10:19:58.305Z,5.30
2019-05-12T10:22:43.774Z,4.27
2019-05-12T10:25:23.249Z,3.47
2019-05-12T10:28:03.008Z,2.80
2019-05-12T10:30:58.947Z,5.53
2019-05-12T10:33:34.293Z,2.73
2019-05-12T10:36:08.667Z,2.30
2019-05-12T10:38:43.406Z,4.00
2019-05-12T10:41:17.375Z,4.30
2019-05-12T10:44:37.698Z,6.73
2019-05-12T10:47:13.542Z,7.37
2019-05-12T10:49:58.163Z,54.60
2019-05-12T10:53:29.911Z,6.73
2019-05-12T10:56:04.004Z,7.03
2019-05-12T10:58:36.435Z,7.73
2019-05-12T11:01:10.635Z,6.70
2019-05-12T11:03:50.959Z,6.60
2019-05-12T11:06:24.372Z,6.73
2019-05-12T11:09:21.332Z,7.90
2019-05-12T11:11:54.069Z,9.10
2019-05-12T11:15:19.702Z,8.57
2019-05-12T11:18:30.626Z,8.40
2019-05-12T11:21:15.372Z,10.23
2019-05-12T11:23:51.093Z,11.00
2019-05-12T11:26:37.893Z,8.60
2019-05-12T11:29:17.014Z,9.33
2019-05-12T11:32:28.975Z,7.83
2019-05-12T11:35:08.386Z,7.57
2019-05-12T11:37:45.238Z,7.73
2019-05-12T11:40:21.089Z,7.53
2019-05-12T11:43:00.992Z,10.37
2019-05-12T11:45:33.672Z,11.27
2019-05-12T11:48:10.309Z,12.27
2019-05-12T11:50:51.175Z,11.17
2019-05-12T11:53:30.527Z,13.60
2019-05-12T11:56:02.359Z,7.40
2019-05-12T11:58:35.346Z,9.53
2019-05-12T12:01:15.088Z,7.43
2019-05-12T12:03:50.532Z,11.60
2019-05-12T12:06:28.498Z,8.97
2019-05-12T12:09:03.954Z,15.50
2019-05-12T12:11:39.367Z,9.37
2019-05-12T12:14:14.250Z,5.03
2019-05-12T12:16:51.581Z,5.87
2019-05-12T12:19:35.010Z,6.47
2019-05-12T12:22:07.631Z,7.70
2019-05-12T12:24:45.100Z,5.87
2019-05-12T12:27:19.412Z,13.27
2019-05-12T12:29:54.356Z,6.07
2019-05-12T12:32:33.926Z,6.43
2019-05-12T12:35:14.866Z,6.43
2019-05-12T12:38:05.520Z,5.33
2019-05-12T12:40:40.287Z,7.60
2019-05-12T12:43:55.122Z,5.43
2019-05-12T12:46:30.333Z,7.00
2019-05-12T12:49:10.333Z,6.43
2019-05-12T12:51:45.013Z,6.90
2019-05-12T12:54:27.170Z,5.60
2019-05-12T12:57:24.463Z,6.50
2019-05-12T12:59:59.165Z,6.63
2019-05-12T13:02:45.205Z,4.60
2019-05-12T13:05:18.289Z,4.40
2019-05-12T13:08:07.985Z,8.80
2019-05-12T13:15:03.862Z,4.70
2019-05-12T13:17:46.904Z,5.30
2019-05-12T13:20:48.875Z,5.37
2019-05-12T13:34:28.913Z,6.10
2019-05-12T13:37:09.314Z,6.00
2019-05-12T13:44:00.100Z,6.10
2019-05-12T13:54:37.899Z,5.83
2019-05-12T13:57:27.328Z,5.13
2019-05-12T14:00:20.921Z,4.37
2019-05-12T14:03:09.448Z,4.90
2019-05-12T14:05:50.354Z,10.93
2019-05-12T14:08:19.579Z,5.93
2019-05-12T14:11:03.552Z,5.40
2019-05-12T14:13:41.337Z,6.70
2019-05-12T14:16:28.229Z,5.60
2019-05-12T14:19:04.646Z,4.57
2019-05-12T14:21:41.127Z,4.20
2019-05-12T14:24:46.896Z,4.50
2019-05-12T14:27:28.701Z,4.33
2019-05-12T14:30:17.670Z,4.50
2019-05-12T14:32:55.100Z,4.70
2019-05-12T14:35:53.770Z,5.40
2019-05-12T14:39:00.167Z,5.43
2019-05-12T14:42:03.869Z,7.20
2019-05-12T14:44:50.120Z,5.50
2019-05-12T14:47:46.889Z,7.90
2019-05-12T14:50:43.991Z,8.10
2019-05-12T14:53:38.522Z,5.93
2019-05-12T14:56:25.029Z,7.30
2019-05-12T14:59:00.601Z,5.10
2019-05-12T15:01:51.580Z,5.10
2019-05-12T15:04:29.849Z,5.13
2019-05-12T15:07:15.329Z,5.03
2019-05-12T15:10:23.336Z,5.10
2019-05-12T15:12:59.801Z,4.63
2019-05-12T15:16:24.399Z,4.90
2019-05-12T15:19:33.424Z,5.47
2019-05-12T15:22:11.711Z,7.53
2019-05-12T15:24:56.941Z,6.37
2019-05-12T15:27:41.991Z,5.60
2019-05-12T15:34:14.272Z,5.93
2019-05-12T15:44:11.144Z,7.87
2019-05-12T15:47:37.490Z,5.57
2019-05-12T15:50:42.612Z,5.57
2019-05-12T15:53:26.825Z,4.57
2019-05-12T15:56:05.627Z,6.83
2019-05-12T15:58:40.484Z,6.50
2019-05-12T16:01:24.416Z,5.93
2019-05-12T16:03:57.608Z,4.90
2019-05-12T16:06:44.701Z,18.53
2019-05-12T16:09:19.227Z,10.83
2019-05-12T16:12:09.983Z,4.30
2019-05-12T16:14:57.578Z,10.00
2019-05-12T16:17:36.344Z,9.70
2019-05-12T16:21:14.550Z,7.67
2019-05-12T16:24:23.519Z,7.70
2019-05-12T16:27:59.628Z,7.80
2019-05-12T16:31:10.474Z,8.07
2019-05-12T16:37:44.226Z,9.83
2019-05-12T16:40:25.243Z,11.07
2019-05-12T16:46:08.396Z,10.57
2019-05-12T16:48:48.207Z,9.07
2019-05-12T16:52:32.507Z,8.83
2019-05-12T16:55:11.211Z,11.13
2019-05-12T16:57:53.945Z,9.87
2019-05-12T17:04:54.051Z,12.03
2019-05-12T17:07:50.311Z,13.00
2019-05-12T17:11:27.895Z,13.90
2019-05-12T17:14:02.225Z,12.83
2019-05-12T17:16:57.117Z,11.97
2019-05-12T17:19:37.256Z,10.97
2019-05-12T17:22:17.740Z,11.37
2019-05-12T17:24:53.741Z,8.80
2019-05-12T17:27:40.172Z,7.93
2019-05-12T17:30:46.034Z,5.50
2019-05-12T17:33:54.381Z,5.77
2019-05-12T17:37:07.719Z,5.93
2019-05-12T17:39:43.843Z,7.93
2019-05-12T17:42:29.638Z,8.07
2019-05-12T17:45:09.304Z,12.50
2019-05-12T17:47:40.236Z,12.00
2019-05-12T17:50:15.575Z,11.20
2019-05-12T17:52:50.367Z,13.17
2019-05-12T17:55:23.717Z,10.57
2019-05-12T17:58:16.935Z,10.00
2019-05-12T18:01:06.169Z,9.30
2019-05-12T18:11:56.203Z,12.53
2019-05-12T18:18:37.905Z,15.63
2019-05-12T18:25:30.370Z,12.20
2019-05-12T18:28:29.491Z,14.07
2019-05-12T18:31:13.860Z,13.23
2019-05-12T18:33:52.148Z,14.20
2019-05-12T18:36:25.257Z,14.77
2019-05-12T18:39:05.619Z,16.73
2019-05-12T18:41:36.162Z,21.87
2019-05-12T18:51:24.134Z,12.90
2019-05-12T18:54:30.671Z,13.60
2019-05-12T18:57:16.841Z,15.00
2019-05-12T19:00:29.684Z,16.27
2019-05-12T19:03:28.252Z,15.77
2019-05-12T19:06:03.823Z,15.23
2019-05-12T19:08:49.118Z,15.43
2019-05-12T19:11:37.339Z,16.33
2019-05-12T19:14:16.186Z,17.20
2019-05-12T19:17:15.060Z,19.50
2019-05-12T19:19:59.881Z,17.63
2019-05-12T19:23:03.559Z,15.80
2019-05-12T19:30:29.709Z,24.47
2019-05-12T19:33:26.734Z,21.57
2019-05-12T19:36:25.421Z,22.83
2019-05-12T19:48:29.262Z,25.87
2019-05-12T19:55:57.686Z,29.67
2019-05-12T20:01:48.286Z,28.60
2019-05-12T20:02:53.770Z,25.97
2019-05-12T20:17:17.636Z,20.93
2019-05-12T20:24:06.980Z,18.90
2019-05-12T20:26:44.098Z,15.00
2019-05-12T20:29:44.380Z,17.80
2019-05-12T20:32:36.742Z,15.10
2019-05-12T20:35:49.267Z,14.73
2019-05-12T20:38:44.535Z,16.17
2019-05-12T20:53:07.073Z,12.40
2019-05-12T20:59:21.970Z,12.37
2019-05-12T21:02:49.616Z,11.00
2019-05-12T21:06:18.260Z,12.40
2019-05-12T21:09:34.684Z,12.53
2019-05-12T21:12:09.968Z,11.97
2019-05-12T21:14:51.598Z,13.47
2019-05-12T21:17:45.937Z,11.73
2019-05-12T21:20:52.364Z,12.20
2019-05-12T21:23:26.156Z,12.57
2019-05-12T21:26:50.604Z,13.60
2019-05-12T21:33:23.856Z,7.60
2019-05-12T21:39:56.843Z,9.30
2019-05-12T21:42:33.925Z,7.20
2019-05-12T21:45:20.039Z,8.60
2019-05-12T21:48:05.173Z,7.23
2019-05-12T21:53:34.630Z,8.00
2019-05-12T21:56:43.835Z,7.53
2019-05-12T22:04:05.441Z,8.63
2019-05-12T22:06:44.545Z,8.60
2019-05-12T22:09:41.752Z,8.47
2019-05-12T22:16:03.691Z,8.87
2019-05-12T22:19:03.501Z,8.80
2019-05-12T22:24:50.760Z,8.60
2019-05-12T22:27:27.159Z,8.37
2019-05-12T22:30:24.084Z,9.50
2019-05-12T22:33:26.758Z,9.33
2019-05-12T22:36:54.628Z,9.00
2019-05-12T22:39:23.567Z,7.17
2019-05-12T22:41:57.876Z,6.77
2019-05-12T22:44:34.521Z,6.03
2019-05-12T22:47:13.025Z,5.47
2019-05-12T22:49:44.329Z,5.87
2019-05-12T22:52:47.211Z,6.00
2019-05-12T22:56:02.859Z,6.23
2019-05-12T22:58:44.173Z,6.70
2019-05-12T23:01:34.570Z,5.77
2019-05-12T23:04:25.996Z,5.53
2019-05-12T23:07:13.640Z,6.00
2019-05-12T23:09:48.202Z,5.30
2019-05-12T23:12:28.174Z,5.43
2019-05-12T23:15:07.269Z,5.10
2019-05-12T23:17:45.264Z,5.40
2019-05-12T23:20:16.722Z,4.10
2019-05-12T23:22:50.931Z,4.43
2019-05-12T23:25:24.904Z,2.50
2019-05-12T23:28:06.795Z,3.33
2019-05-12T23:30:43.839Z,2.53
2019-05-12T23:33:15.709Z,2.93
2019-05-12T23:35:53.415Z,3.17
2019-05-12T23:38:28.143Z,3.40
2019-05-12T23:41:04.232Z,3.30
2019-05-12T23:43:38.242Z,4.07
2019-05-12T23:46:17.437Z,3.63
2019-05-12T23:48:54.912Z,2.67
2019-05-12T23:51:29.160Z,3.40
2019-05-12T23:54:03.943Z,3.97
2019-05-12T23:56:37.953Z,3.33
2019-05-12T23:59:13.561Z,2.90
